KMFD/MFD METAR and TAF weather

Enter ICAO airport designator
Station Type Date Time Source
KMFD METAR 2019/04/19 08:00 UTC NOAA

KMFD 190800Z AUTO 02009KT 1 1/4SM -RA BR OVC002 12/12 A2956 RMK AO2 P0001 T01170117


Station Type Date Time Source
KMFD Decoded METAR 2019/04/19 08:00 UTC NOAA

LAHM MUNICIPAL AIRPORT, OH, United States (KMFD) 40-49N 082-31W 395M
Apr 19, 2019 - 04:00 AM EDT / 2019.04.19 0800 UTC
Wind: from the NNE (020 degrees) at 10 MPH (9 KT):0
Visibility: 1 1/4 mile(s):0
Sky conditions: overcast
Weather: light rain; mist
Precipitation last hour: 0.01 inches
Temperature: 53.1 F (11.7 C)
Dew Point: 53.1 F (11.7 C)
Relative Humidity: 100%
Pressure (altimeter): 29.56 in. Hg (1001 hPa)
ob: KMFD 190800Z AUTO 02009KT 1 1/4SM -RA BR OVC002 12/12 A2956 RMK AO2 P0001 T01170117
cycle: 8

Station Type Date Time Source
KMFD TAF 2019/04/19 08:57 UTC NOAA

TAF
AMD KMFD 190755Z 1908/2006 04008KT 4SM -SHRA BR OVC005
FM192200 36014G20KT 2SM -RA BR OVC003

Example: see airport list